createdAt,value
2019-05-28T00:01:30.189Z,6.95
2019-05-28T00:03:58.422Z,8.55
2019-05-28T00:06:26.614Z,9.38
2019-05-28T00:08:54.818Z,6.28
2019-05-28T00:11:23.015Z,10.82
2019-05-28T00:13:51.252Z,9.08
2019-05-28T00:16:19.475Z,8.60
2019-05-28T00:18:48.457Z,5.95
2019-05-28T00:21:16.648Z,7.97
2019-05-28T00:23:45.304Z,8.23
2019-05-28T00:26:13.534Z,10.63
2019-05-28T00:29:27.770Z,7.97
2019-05-28T00:31:56.732Z,5.95
2019-05-28T00:34:24.958Z,6.25
2019-05-28T00:36:53.147Z,8.45
2019-05-28T00:39:21.400Z,7.42
2019-05-28T00:41:49.602Z,6.22
2019-05-28T00:44:18.367Z,11.08
2019-05-28T00:46:46.573Z,6.97
2019-05-28T00:49:14.776Z,5.33
2019-05-28T00:51:42.964Z,7.80
2019-05-28T00:54:11.270Z,10.93
2019-05-28T00:56:39.477Z,10.72
2019-05-28T00:59:07.721Z,7.55
2019-05-28T01:01:35.925Z,8.28
2019-05-28T01:04:04.120Z,7.58
2019-05-28T01:06:32.329Z,8.95
2019-05-28T01:09:00.527Z,8.63
2019-05-28T01:11:28.727Z,8.15
2019-05-28T01:13:56.924Z,9.43
2019-05-28T01:16:25.429Z,9.15
2019-05-28T01:18:53.627Z,7.65
2019-05-28T01:21:21.909Z,10.82
2019-05-28T01:23:50.568Z,8.10
2019-05-28T01:26:18.780Z,7.42
2019-05-28T01:28:46.973Z,7.67
2019-05-28T01:31:15.180Z,7.30
2019-05-28T01:33:43.374Z,8.50
2019-05-28T01:36:11.583Z,8.88
2019-05-28T01:38:39.768Z,5.53
2019-05-28T01:41:07.969Z,5.95
2019-05-28T01:43:36.163Z,7.83
2019-05-28T01:46:04.368Z,8.00
2019-05-28T01:48:33.650Z,6.03
2019-05-28T01:51:01.855Z,6.80
2019-05-28T01:53:30.052Z,6.50
2019-05-28T01:55:58.255Z,9.00
2019-05-28T01:59:21.360Z,6.12
2019-05-28T02:01:49.565Z,5.37
2019-05-28T02:04:17.758Z,6.05
2019-05-28T02:06:45.963Z,8.18
2019-05-28T02:09:14.165Z,5.20
2019-05-28T02:11:42.840Z,7.00
2019-05-28T02:14:11.127Z,8.95
2019-05-28T02:16:39.329Z,5.65
2019-05-28T02:19:07.528Z,11.53
2019-05-28T02:21:36.305Z,8.05
2019-05-28T02:24:04.496Z,9.70
2019-05-28T02:26:33.469Z,7.95
2019-05-28T02:29:02.438Z,7.42
2019-05-28T02:31:30.640Z,8.15
2019-05-28T02:33:58.829Z,9.88
2019-05-28T02:36:27.206Z,9.93
2019-05-28T02:38:55.405Z,10.43
2019-05-28T02:41:23.646Z,7.97
2019-05-28T02:43:51.837Z,6.33
2019-05-28T02:46:20.093Z,6.15
2019-05-28T02:48:48.529Z,5.85
2019-05-28T02:51:16.733Z,8.75
2019-05-28T02:53:44.924Z,7.72
2019-05-28T02:56:15.936Z,6.60
2019-05-28T02:58:44.224Z,8.53
2019-05-28T03:01:12.431Z,8.15
2019-05-28T03:03:40.620Z,5.80
2019-05-28T03:06:10.429Z,8.05
2019-05-28T03:08:38.589Z,8.05
2019-05-28T03:11:08.356Z,9.63
2019-05-28T03:13:36.547Z,9.80
2019-05-28T03:16:04.737Z,8.78
2019-05-28T03:18:33.926Z,7.80
2019-05-28T03:21:02.212Z,9.35
2019-05-28T03:23:30.414Z,8.50
2019-05-28T03:25:58.774Z,5.72
2019-05-28T03:28:27.753Z,6.65
2019-05-28T03:30:57.993Z,6.28
2019-05-28T03:33:26.968Z,6.87
2019-05-28T03:35:55.516Z,6.33
2019-05-28T03:38:23.725Z,5.33
2019-05-28T03:40:51.912Z,9.13
2019-05-28T03:43:21.595Z,7.20
2019-05-28T03:45:49.789Z,9.90
2019-05-28T03:48:18.461Z,7.97
2019-05-28T03:50:46.935Z,6.47
2019-05-28T03:53:15.147Z,11.18
2019-05-28T03:55:43.347Z,6.45
2019-05-28T03:58:11.574Z,10.63
2019-05-28T04:00:39.756Z,8.83
2019-05-28T04:03:08.433Z,8.10
2019-05-28T04:05:37.199Z,8.08
2019-05-28T04:08:05.577Z,7.67
2019-05-28T04:10:33.889Z,9.58
2019-05-28T04:13:02.095Z,9.80
2019-05-28T04:15:30.288Z,8.73
2019-05-28T04:17:59.159Z,11.25
2019-05-28T04:20:27.350Z,8.08
2019-05-28T04:22:55.564Z,7.85
2019-05-28T04:25:23.756Z,15.50
2019-05-28T04:27:51.958Z,8.15
2019-05-28T04:30:20.917Z,6.85
2019-05-28T04:32:49.116Z,9.55
2019-05-28T04:35:17.308Z,8.83
2019-05-28T04:37:45.589Z,7.17
2019-05-28T04:40:14.047Z,9.48
2019-05-28T04:42:42.340Z,5.97
2019-05-28T04:45:11.406Z,7.17
2019-05-28T04:47:40.581Z,13.88
2019-05-28T04:50:08.778Z,8.73
2019-05-28T04:52:37.253Z,10.15
2019-05-28T04:55:05.449Z,9.60
2019-05-28T04:57:33.653Z,8.08
2019-05-28T05:00:02.189Z,6.53
2019-05-28T05:02:30.408Z,11.83
2019-05-28T05:04:58.845Z,7.10
2019-05-28T05:07:27.047Z,9.83
2019-05-28T05:09:55.247Z,13.08
2019-05-28T05:12:23.442Z,17.35
2019-05-28T05:14:51.970Z,11.15
2019-05-28T05:17:20.833Z,16.12
2019-05-28T05:19:49.029Z,8.90
2019-05-28T05:22:17.248Z,9.95
2019-05-28T05:24:47.005Z,10.58
2019-05-28T05:27:15.207Z,10.28
2019-05-28T05:29:43.688Z,11.55
2019-05-28T05:32:12.441Z,8.03
2019-05-28T05:34:40.654Z,10.70
2019-05-28T05:37:08.918Z,11.93
2019-05-28T05:39:38.698Z,8.90
2019-05-28T05:42:06.885Z,7.70
2019-05-28T05:44:36.652Z,7.95
2019-05-28T05:47:04.845Z,8.38
2019-05-28T05:49:33.372Z,9.75
2019-05-28T05:52:01.583Z,10.80
2019-05-28T05:54:29.786Z,11.22
2019-05-28T05:56:57.993Z,13.05
2019-05-28T05:59:26.218Z,10.00
2019-05-28T06:01:54.413Z,12.18
2019-05-28T06:04:22.784Z,13.43
2019-05-28T06:06:52.455Z,12.07
2019-05-28T06:09:20.658Z,7.20
2019-05-28T06:11:50.991Z,8.25
2019-05-28T06:16:46.700Z,13.48
2019-05-28T06:19:15.269Z,9.58
2019-05-28T06:21:43.459Z,10.28
2019-05-28T06:24:11.679Z,10.18
2019-05-28T06:26:39.864Z,8.88
2019-05-28T06:29:08.105Z,8.35
2019-05-28T06:31:36.298Z,9.18
2019-05-28T06:34:04.516Z,11.55
2019-05-28T06:36:32.999Z,10.40
2019-05-28T06:39:01.220Z,8.28
2019-05-28T06:41:29.417Z,11.18
2019-05-28T06:43:57.619Z,5.70
2019-05-28T06:46:25.814Z,6.70
2019-05-28T06:48:54.026Z,8.68
2019-05-28T06:51:22.789Z,8.48
2019-05-28T06:53:50.991Z,8.48
2019-05-28T06:56:19.188Z,12.05
2019-05-28T06:58:47.392Z,9.68
2019-05-28T07:01:15.606Z,5.78
2019-05-28T07:03:43.781Z,8.73
2019-05-28T07:06:12.451Z,11.15
2019-05-28T07:08:40.656Z,9.30
2019-05-28T07:11:08.846Z,7.95
2019-05-28T07:13:37.035Z,9.60
2019-05-28T07:16:05.237Z,8.73
2019-05-28T07:18:33.718Z,9.65
2019-05-28T07:21:01.927Z,10.75
2019-05-28T07:23:30.595Z,9.98
2019-05-28T07:25:58.802Z,7.87
2019-05-28T07:28:27.462Z,10.05
2019-05-28T07:30:55.660Z,7.03
2019-05-28T07:33:24.200Z,7.15
2019-05-28T07:35:52.402Z,9.83
2019-05-28T07:38:20.602Z,11.80
2019-05-28T07:40:48.810Z,12.18
2019-05-28T07:43:17.574Z,11.48
2019-05-28T07:45:46.351Z,17.12
2019-05-28T07:48:14.545Z,10.65
2019-05-28T07:50:42.755Z,7.90
2019-05-28T07:53:10.950Z,13.18
2019-05-28T07:55:39.156Z,7.33
2019-05-28T07:58:07.353Z,9.35
2019-05-28T08:00:40.637Z,7.92
2019-05-28T08:03:08.837Z,10.15
2019-05-28T08:05:37.113Z,9.68
2019-05-28T08:08:08.803Z,12.18
2019-05-28T08:10:37.014Z,12.45
2019-05-28T08:13:07.866Z,11.35
2019-05-28T08:15:36.340Z,10.58
2019-05-28T08:18:04.998Z,13.20
2019-05-28T08:20:33.578Z,12.75
2019-05-28T08:23:01.952Z,16.00
2019-05-28T08:25:46.131Z,9.65
2019-05-28T08:30:29.804Z,7.83
2019-05-28T08:32:57.999Z,8.70
2019-05-28T08:35:26.203Z,11.63
2019-05-28T08:37:54.497Z,13.18
2019-05-28T08:40:23.771Z,15.95
2019-05-28T08:42:51.976Z,11.85
2019-05-28T08:45:20.179Z,15.58
2019-05-28T08:47:48.384Z,10.53
2019-05-28T08:50:31.014Z,11.93
2019-05-28T08:52:46.506Z,14.65
2019-05-28T08:55:15.182Z,11.05
2019-05-28T08:57:43.381Z,10.10
2019-05-28T09:00:11.862Z,9.50
2019-05-28T09:02:40.054Z,11.22
2019-05-28T09:05:25.306Z,13.05
2019-05-28T09:07:38.950Z,10.98
2019-05-28T09:10:07.328Z,10.43
2019-05-28T09:12:35.523Z,13.30
2019-05-28T09:15:04.890Z,14.98
2019-05-28T09:17:33.093Z,24.02
2019-05-28T09:20:01.794Z,12.75
2019-05-28T09:22:29.966Z,10.78
2019-05-28T09:24:59.663Z,11.65
2019-05-28T09:27:28.120Z,12.13
2019-05-28T09:29:56.303Z,11.78
2019-05-28T09:32:24.507Z,10.35
2019-05-28T09:34:52.817Z,11.33
2019-05-28T09:37:21.027Z,11.53
2019-05-28T09:39:49.226Z,15.20
2019-05-28T09:42:17.433Z,17.05
2019-05-28T09:44:45.642Z,12.78
2019-05-28T09:47:13.903Z,10.18
2019-05-28T09:49:42.147Z,11.48
2019-05-28T09:52:10.354Z,11.68
2019-05-28T09:54:38.550Z,11.10
2019-05-28T09:57:06.765Z,11.33
2019-05-28T09:59:41.684Z,12.98
2019-05-28T10:02:05.062Z,13.22
2019-05-28T10:04:47.335Z,10.08
2019-05-28T10:07:03.247Z,15.88
2019-05-28T10:09:32.132Z,13.68
2019-05-28T10:12:00.342Z,12.98
2019-05-28T10:14:28.533Z,12.35
2019-05-28T10:16:56.747Z,13.55
2019-05-28T10:19:25.009Z,11.70
2019-05-28T10:21:53.172Z,11.85
2019-05-28T10:24:21.937Z,9.83
2019-05-28T10:26:50.149Z,9.15
2019-05-28T10:29:19.014Z,9.13
2019-05-28T10:31:47.522Z,11.22
2019-05-28T10:34:16.383Z,9.38
2019-05-28T10:36:44.599Z,9.08
2019-05-28T10:39:12.785Z,9.88
2019-05-28T10:41:41.083Z,10.08
2019-05-28T10:44:09.280Z,10.25
2019-05-28T10:46:37.475Z,9.88
2019-05-28T10:49:05.742Z,8.85
2019-05-28T10:51:33.938Z,8.85
2019-05-28T10:54:02.131Z,7.67
2019-05-28T10:56:30.334Z,8.40
2019-05-28T10:58:58.536Z,11.70
2019-05-28T11:01:27.308Z,9.35
2019-05-28T11:03:55.501Z,7.80
2019-05-28T11:06:23.704Z,8.13
2019-05-28T11:08:51.928Z,11.75
2019-05-28T11:11:20.129Z,7.80
2019-05-28T11:13:53.115Z,7.03
2019-05-28T11:16:18.831Z,7.62
2019-05-28T11:18:47.072Z,6.20
2019-05-28T11:21:15.278Z,6.37
2019-05-28T11:23:43.470Z,4.10
2019-05-28T11:26:11.674Z,9.75
2019-05-28T11:28:39.865Z,9.68
2019-05-28T11:31:08.070Z,9.03
2019-05-28T11:33:36.839Z,8.05
2019-05-28T11:36:05.209Z,9.55
2019-05-28T11:38:33.406Z,10.58
2019-05-28T11:41:02.185Z,8.70
2019-05-28T11:43:30.389Z,11.83
2019-05-28T11:45:58.584Z,8.60
2019-05-28T11:48:27.058Z,8.63
2019-05-28T11:50:55.250Z,7.28
2019-05-28T11:53:23.460Z,11.63
2019-05-28T11:55:51.931Z,12.03
2019-05-28T11:58:20.158Z,9.05
2019-05-28T12:00:49.393Z,7.05
2019-05-28T12:03:17.770Z,9.53
2019-05-28T12:05:45.967Z,8.30
2019-05-28T12:08:14.174Z,9.88
2019-05-28T12:10:42.370Z,8.78
2019-05-28T12:13:12.943Z,8.33
2019-05-28T12:15:41.135Z,6.45
2019-05-28T12:18:09.342Z,12.60
2019-05-28T12:20:37.539Z,8.95
2019-05-28T12:23:11.620Z,8.38
2019-05-28T12:25:35.663Z,7.22
2019-05-28T12:28:03.865Z,8.68
2019-05-28T12:30:32.061Z,11.35
2019-05-28T12:33:00.279Z,7.45
2019-05-28T12:35:30.189Z,4.28
2019-05-28T12:37:58.416Z,9.13
2019-05-28T12:40:26.603Z,6.70
2019-05-28T12:42:54.860Z,11.10
2019-05-28T12:45:35.110Z,6.85
2019-05-28T12:50:57.400Z,6.08
2019-05-28T12:53:25.606Z,6.08
2019-05-28T12:55:53.826Z,7.80
2019-05-28T12:58:38.556Z,7.70
2019-05-28T13:00:52.115Z,8.18
2019-05-28T13:03:20.308Z,8.08
2019-05-28T13:05:48.501Z,7.42
2019-05-28T13:08:16.715Z,8.18
2019-05-28T13:10:45.489Z,9.00
2019-05-28T13:13:13.697Z,10.20
2019-05-28T13:15:42.825Z,10.28
2019-05-28T13:18:11.178Z,10.25
2019-05-28T13:20:39.372Z,6.15
2019-05-28T13:23:07.595Z,14.90
2019-05-28T13:25:35.791Z,9.45
2019-05-28T13:28:04.064Z,7.92
2019-05-28T13:30:32.261Z,10.48
2019-05-28T13:33:00.935Z,9.23
2019-05-28T13:35:29.119Z,9.95
2019-05-28T13:37:57.325Z,9.60
2019-05-28T13:40:26.486Z,13.28
2019-05-28T13:42:54.833Z,8.25
2019-05-28T13:45:23.079Z,7.00
2019-05-28T13:47:51.281Z,10.18
2019-05-28T13:50:19.486Z,8.08
2019-05-28T13:52:47.690Z,7.70
2019-05-28T13:55:15.879Z,4.53
2019-05-28T13:57:44.221Z,5.03
2019-05-28T14:00:14.208Z,6.45
2019-05-28T14:02:46.037Z,7.62
2019-05-28T14:05:12.266Z,6.87
2019-05-28T14:07:40.447Z,5.12
2019-05-28T14:10:08.651Z,3.92
2019-05-28T14:12:36.843Z,2.80
2019-05-28T14:15:08.121Z,4.95
2019-05-28T14:17:36.305Z,4.30
2019-05-28T14:20:06.399Z,3.50
2019-05-28T14:22:34.895Z,7.45
2019-05-28T14:25:03.409Z,2.92
2019-05-28T14:27:31.559Z,4.97
2019-05-28T14:29:59.759Z,3.10
2019-05-28T14:32:27.953Z,2.70
2019-05-28T14:34:56.162Z,5.40
2019-05-28T14:37:24.358Z,4.75
2019-05-28T14:39:52.633Z,6.50
2019-05-28T14:42:21.615Z,3.83
2019-05-28T14:44:49.823Z,3.72
2019-05-28T14:47:18.026Z,4.97
2019-05-28T14:49:46.223Z,9.43
2019-05-28T14:52:14.409Z,11.80
2019-05-28T14:54:42.615Z,7.47
2019-05-28T14:57:10.891Z,7.78
2019-05-28T14:59:39.100Z,7.20
2019-05-28T15:02:08.361Z,10.32
2019-05-28T15:04:37.171Z,6.90
2019-05-28T15:07:05.418Z,9.88
2019-05-28T15:09:34.720Z,7.92
2019-05-28T15:12:03.833Z,10.00
2019-05-28T15:14:32.437Z,8.28
2019-05-28T15:17:00.701Z,6.80
2019-05-28T15:19:28.889Z,11.10
2019-05-28T15:21:57.459Z,10.40
2019-05-28T15:24:26.451Z,12.10
2019-05-28T15:26:58.359Z,9.75
2019-05-28T15:29:26.563Z,12.05
2019-05-28T15:31:55.082Z,10.08
2019-05-28T15:34:23.269Z,8.53
2019-05-28T15:36:51.456Z,12.35
2019-05-28T15:39:36.053Z,10.00
2019-05-28T15:41:50.152Z,8.88
2019-05-28T15:44:18.360Z,7.62
2019-05-28T15:46:46.558Z,7.30
2019-05-28T15:49:14.766Z,10.23
2019-05-28T15:51:42.967Z,10.18
2019-05-28T15:54:11.242Z,11.50
2019-05-28T15:56:40.030Z,7.15
2019-05-28T15:59:08.205Z,7.97
2019-05-28T16:01:36.402Z,7.85
2019-05-28T16:04:04.660Z,10.60
2019-05-28T16:06:32.805Z,6.35
2019-05-28T16:09:01.001Z,6.65
2019-05-28T16:11:29.201Z,5.83
2019-05-28T16:13:57.462Z,7.28
2019-05-28T16:16:25.692Z,5.97
2019-05-28T16:18:53.883Z,8.48
2019-05-28T16:21:22.177Z,5.75
2019-05-28T16:23:52.179Z,5.83
2019-05-28T16:26:20.383Z,6.80
2019-05-28T16:28:48.578Z,6.70
2019-05-28T16:31:16.781Z,7.10
2019-05-28T16:33:44.975Z,9.83
2019-05-28T16:36:13.183Z,6.70
2019-05-28T16:38:41.378Z,5.83
2019-05-28T16:41:10.144Z,8.50
2019-05-28T16:43:38.342Z,7.15
2019-05-28T16:46:06.564Z,7.45
2019-05-28T16:48:34.725Z,6.05
2019-05-28T16:51:03.089Z,8.63
2019-05-28T16:53:31.363Z,7.85
2019-05-28T16:55:59.814Z,10.10
2019-05-28T16:58:28.568Z,6.78
2019-05-28T17:01:04.683Z,6.85
2019-05-28T17:03:26.860Z,8.68
2019-05-28T17:05:55.078Z,9.45
2019-05-28T17:08:23.320Z,8.95
2019-05-28T17:10:51.996Z,8.23
2019-05-28T17:13:20.205Z,8.63
2019-05-28T17:15:48.391Z,9.38
2019-05-28T17:18:16.593Z,14.03
2019-05-28T17:20:44.797Z,12.15
2019-05-28T17:23:12.997Z,30.40
2019-05-28T17:25:41.209Z,11.18
2019-05-28T17:28:09.477Z,11.08
2019-05-28T17:30:37.998Z,11.08
2019-05-28T17:33:06.189Z,11.60
2019-05-28T17:35:34.397Z,9.83
2019-05-28T17:38:02.882Z,10.82
2019-05-28T17:40:47.097Z,10.93
2019-05-28T17:43:01.073Z,9.68
2019-05-28T17:45:29.259Z,13.62
2019-05-28T17:47:57.456Z,11.10
2019-05-28T17:50:25.682Z,11.53
2019-05-28T17:52:53.855Z,11.20
2019-05-28T17:55:22.396Z,10.93
2019-05-28T17:57:50.577Z,10.78
2019-05-28T18:00:18.800Z,10.35
2019-05-28T18:02:48.660Z,11.60
2019-05-28T18:05:17.105Z,12.33
2019-05-28T18:07:45.288Z,13.40
2019-05-28T18:10:13.499Z,14.75
2019-05-28T18:12:43.269Z,14.78
2019-05-28T18:15:11.525Z,13.98
2019-05-28T18:17:41.266Z,14.30
2019-05-28T18:20:09.745Z,22.80
2019-05-28T18:22:37.957Z,16.93
2019-05-28T18:25:07.309Z,15.78
2019-05-28T18:27:35.511Z,14.70
2019-05-28T18:30:08.547Z,17.10
2019-05-28T18:32:37.121Z,14.80
2019-05-28T18:35:07.069Z,14.68
2019-05-28T18:37:36.054Z,17.27
2019-05-28T18:40:09.706Z,19.37
2019-05-28T18:42:38.022Z,20.60
2019-05-28T18:45:07.982Z,19.95
2019-05-28T18:47:36.363Z,17.67
2019-05-28T18:50:07.795Z,17.02
2019-05-28T18:53:34.377Z,18.92
2019-05-28T18:56:16.456Z,16.23
2019-05-28T19:02:13.487Z,18.45
2019-05-28T19:04:41.696Z,18.75
2019-05-28T19:07:10.179Z,17.90
2019-05-28T19:09:38.378Z,17.60
2019-05-28T19:12:06.593Z,14.18
2019-05-28T19:14:34.797Z,14.70
2019-05-28T19:17:03.015Z,13.45
2019-05-28T19:19:31.220Z,11.88
2019-05-28T19:21:59.437Z,10.53
2019-05-28T19:24:27.651Z,13.35
2019-05-28T19:26:55.855Z,13.58
2019-05-28T19:29:24.055Z,12.73
2019-05-28T19:31:52.538Z,9.80
2019-05-28T19:34:21.309Z,6.87
2019-05-28T19:36:49.512Z,9.58
2019-05-28T19:39:17.780Z,7.85
2019-05-28T19:41:54.335Z,8.33
2019-05-28T19:44:15.898Z,9.15
2019-05-28T19:46:44.161Z,7.50
2019-05-28T19:49:12.358Z,7.58
2019-05-28T19:51:40.613Z,6.83
2019-05-28T19:54:08.808Z,5.75
2019-05-28T19:56:37.086Z,6.05
2019-05-28T19:59:05.262Z,6.03
2019-05-28T20:01:33.507Z,4.47
2019-05-28T20:04:01.699Z,4.97
2019-05-28T20:06:31.165Z,4.55
2019-05-28T20:08:59.453Z,11.37
2019-05-28T20:11:27.870Z,6.85
2019-05-28T20:14:14.312Z,4.97
2019-05-28T20:21:06.988Z,5.10
2019-05-28T20:23:35.187Z,6.12
2019-05-28T20:26:03.384Z,4.65
2019-05-28T20:28:31.579Z,5.67
2019-05-28T20:30:59.841Z,7.87
2019-05-28T20:33:27.984Z,6.12
2019-05-28T20:35:56.175Z,3.80
2019-05-28T20:38:24.376Z,4.90
2019-05-28T20:40:52.629Z,9.58
2019-05-28T20:43:20.842Z,9.48
2019-05-28T20:45:49.033Z,7.92
2019-05-28T20:48:17.238Z,4.42
2019-05-28T20:50:45.437Z,4.58
2019-05-28T20:53:14.212Z,7.35
2019-05-28T20:55:42.408Z,3.98
2019-05-28T20:58:10.607Z,5.25
2019-05-28T21:00:39.054Z,4.15
2019-05-28T21:03:08.021Z,3.20
2019-05-28T21:05:36.231Z,5.80
2019-05-28T21:08:04.428Z,3.85
2019-05-28T21:10:33.187Z,7.30
2019-05-28T21:13:02.155Z,9.75
2019-05-28T21:15:30.343Z,4.78
2019-05-28T21:17:59.517Z,6.15
2019-05-28T21:20:27.935Z,4.78
2019-05-28T21:22:56.143Z,3.87
2019-05-28T21:25:24.337Z,3.27
2019-05-28T21:27:52.543Z,6.72
2019-05-28T21:30:20.746Z,5.45
2019-05-28T21:32:48.937Z,8.73
2019-05-28T21:35:17.137Z,2.05
2019-05-28T21:37:45.641Z,5.85
2019-05-28T21:40:14.896Z,5.05
2019-05-28T21:42:56.541Z,4.17
2019-05-28T21:45:13.015Z,5.12
2019-05-28T21:47:41.486Z,6.08
2019-05-28T21:50:09.843Z,4.00
2019-05-28T21:52:39.550Z,7.97
2019-05-28T21:55:08.018Z,5.42
2019-05-28T21:57:36.295Z,5.67
2019-05-28T22:00:11.067Z,6.30
2019-05-28T22:02:39.269Z,6.17
2019-05-28T22:05:09.335Z,5.47
2019-05-28T22:07:37.387Z,4.58
2019-05-28T22:10:08.478Z,5.42
2019-05-28T22:12:39.644Z,4.97
2019-05-28T22:15:08.362Z,9.10
2019-05-28T22:17:36.573Z,6.22
2019-05-28T22:20:08.797Z,3.40
2019-05-28T22:22:37.156Z,6.22
2019-05-28T22:25:06.972Z,6.92
2019-05-28T22:27:35.159Z,5.90
2019-05-28T22:30:07.309Z,2.75
2019-05-28T22:32:35.631Z,3.92
2019-05-28T22:35:04.758Z,5.60
2019-05-28T22:37:33.000Z,3.83
2019-05-28T22:40:01.482Z,4.55
2019-05-28T22:42:29.668Z,4.50
2019-05-28T22:44:58.730Z,4.25
2019-05-28T22:47:27.139Z,3.20
2019-05-28T22:50:13.097Z,3.90
2019-05-28T22:52:25.251Z,7.15
2019-05-28T22:54:53.453Z,3.45
2019-05-28T22:57:21.641Z,4.22
2019-05-28T22:59:49.841Z,8.08
2019-05-28T23:02:18.023Z,3.60
2019-05-28T23:04:46.997Z,3.15
2019-05-28T23:07:15.195Z,3.12
2019-05-28T23:09:43.390Z,5.70
2019-05-28T23:12:11.577Z,6.35
2019-05-28T23:14:39.778Z,6.40
2019-05-28T23:17:08.439Z,5.92
2019-05-28T23:19:37.428Z,4.58
2019-05-28T23:22:06.897Z,3.33
2019-05-28T23:24:35.191Z,5.97
2019-05-28T23:27:03.586Z,6.83
2019-05-28T23:29:31.963Z,7.72
2019-05-28T23:32:00.190Z,8.50
2019-05-28T23:34:28.363Z,4.50
2019-05-28T23:36:56.555Z,4.30
2019-05-28T23:39:24.739Z,3.47
2019-05-28T23:41:52.927Z,5.45
2019-05-28T23:44:21.132Z,4.58
2019-05-28T23:46:49.322Z,4.53
2019-05-28T23:49:17.519Z,5.25
2019-05-28T23:51:45.704Z,6.22
2019-05-28T23:54:13.992Z,5.28
2019-05-28T23:56:42.188Z,6.87
2019-05-28T23:59:10.377Z,4.90
